Flight Track Log - Related Links

Times and Time Zones

All times are in EDT time to prevent confusion due to time zone crossing. See the SWA157 flight status page for this flight to view local times or setup timezone preferences in your user account.

Time Position Orientation Groundspeed Altitude Reporting Facility
EDT Latitude Longitude Course Direction KTS MPH feet Rate Location/Type
Fri 04:51:11 PM 33.5986 -117.8994 191° South 148 170 3,900  Level Los Angeles Center
Fri 04:52:13 PM 33.5458 -117.9269 203° Southwest 199 229 7,000 2,736 Climbing Los Angeles Center
Fri 04:53:16 PM 33.4789 -117.9800 213° Southwest 266 306 9,600 3,097 Climbing Los Angeles Center
Fri 04:54:17 PM 33.4425 -118.0794 246° West 321 369 13,400 3,610 Climbing Los Angeles Center
Fri 04:55:19 PM 33.4250 -118.1906 259° West 334 384 17,000 3,242 Climbing Los Angeles Center
Fri 04:56:21 PM 33.4269 -118.3161 271° West 367 422 20,100 2,855 Climbing Los Angeles Center
Fri 04:57:23 PM 33.4753 -118.4303 297° West 393 452 22,900 2,784 Climbing Los Angeles Center
Fri 04:58:26 PM 33.5719 -118.5517 314° West 412 474 25,900 2,592 Climbing Los Angeles Center
Fri 04:59:28 PM 33.6533 -118.6575 313° West 423 487 28,300 2,129 Climbing Los Angeles Center
Fri 05:00:30 PM 33.7372 -118.7647 313° West 436 502 30,300 2,032 Climbing Los Angeles Center
Fri 05:01:32 PM 33.8222 -118.8744 313° West 445 512 32,500 2,226 Climbing Los Angeles Center
Fri 05:02:34 PM 33.9061 -118.9833 313° West 440 506 34,900 2,081 Climbing Los Angeles Center
Fri 05:03:36 PM 33.9875 -119.0894 313° West 434 499 36,800 1,597 Climbing Los Angeles Center
Fri 05:04:38 PM 34.0692 -119.1950 313° West 430 495 38,200 1,536 Climbing Los Angeles Center
Fri 05:05:41 PM 34.1664 -119.3231 313° West 431 496 40,000 864 Climbing Los Angeles Center
Fri 05:06:43 PM 34.2475 -119.4289 313° West 430 495 40,000  Level Los Angeles Center
Fri 05:07:45 PM 34.3278 -119.5342 313° West 426 490 40,000  Level Los Angeles Center
Fri 05:08:47 PM 34.4078 -119.6408 312° West 427 491 40,000  Level Los Angeles Center
Fri 05:09:49 PM 34.4886 -119.7447 313° West 425 489 40,000  Level Los Angeles Center
Fri 05:10:51 PM 34.6025 -119.8511 322° Northwest 433 498 40,000  Level Los Angeles Center
Fri 05:11:53 PM 34.6958 -119.9250 327° Northwest 440 506 40,000  Level Los Angeles Center
Fri 05:12:55 PM 34.7950 -120.0075 326° Northwest 433 498 40,000  Level Los Angeles Center
Fri 05:13:58 PM 34.9106 -120.1025 326° Northwest 436 502 40,000  Level Los Angeles Center
Fri 05:15:00 PM 35.0108 -120.1853 326° Northwest 440 506 40,000  Level Los Angeles Center
Fri 05:16:02 PM 35.1094 -120.2683 325° Northwest 437 503 40,000  Level Los Angeles Center
Fri 05:17:04 PM 35.2089 -120.3514 326° Northwest 440 506 40,000  Level Los Angeles Center
Fri 05:18:06 PM 35.3064 -120.4347 325° Northwest 436 502 40,000  Level Los Angeles Center
Fri 05:19:08 PM 35.4253 -120.5369 325° Northwest 437 503 40,000 -290 Level Los Angeles Center
Fri 05:20:10 PM 35.5242 -120.6200 326° Northwest 432 497 39,400 -1,452 Descending Los Angeles Center
Fri 05:21:12 PM 35.6206 -120.7017 325° Northwest 424 488 37,000 -2,444 Descending Los Angeles Center
Fri 05:21:31 PM 35.6550 -120.7308 325° Northwest 421 484 36,100 -2,370 Descending Oakland Center
Fri 05:22:33 PM 35.7522 -120.8139 325° Northwest 421 484 33,800 -2,098 Descending Oakland Center
Fri 05:23:34 PM 35.8472 -120.8953 325° Northwest 413 475 31,800 -1,951 Descending Oakland Center
Fri 05:24:36 PM 35.9406 -120.9747 325° Northwest 408 470 29,800 -1,951 Descending Oakland Center
Fri 05:25:37 PM 36.0319 -121.0544 325° Northwest 396 456 27,800 -1,951 Descending Oakland Center
Fri 05:26:39 PM 36.1217 -121.1303 326° Northwest 390 449 25,800 -2,098 Descending Oakland Center
Fri 05:27:40 PM 36.2233 -121.2192 325° Northwest 372 428 23,500 -2,000 Descending Oakland Center
Fri 05:28:42 PM 36.3053 -121.2911 325° Northwest 357 411 21,700 -1,756 Descending Oakland Center
Fri 05:29:43 PM 36.3850 -121.3592 326° Northwest 347 399 19,900 -1,756 Descending Oakland Center
Fri 05:30:45 PM 36.4633 -121.4278 325° Northwest 340 391 18,100 -1,756 Descending Oakland Center
Fri 05:31:46 PM 36.5431 -121.4956 326° Northwest 345 397 16,300 -1,756 Descending Oakland Center
Fri 05:32:48 PM 36.6181 -121.5653 323° Northwest 336 387 14,500 -1,756 Descending Oakland Center
Fri 05:33:49 PM 36.7017 -121.5969 343° North 312 359 12,700 -1,756 Descending Oakland Center
Fri 05:34:51 PM 36.7933 -121.5858 North 324 373 10,900 -1,500 Descending Oakland Center
Fri 05:35:53 PM 36.8900 -121.5792 North 305 351 9,600 -1,171 Descending Oakland Center
Fri 05:36:54 PM 36.9697 -121.5731 North 293 337 8,500 -780 Descending Oakland Center
Fri 05:37:56 PM 37.0422 -121.5697 North 273 314 8,000 -683 Descending Oakland Center
Fri 05:38:57 PM 37.0903 -121.6317 314° West 224 258 7,100 -585 Descending Oakland Center
Fri 05:39:59 PM 37.1347 -121.6775 321° Northwest 209 241 6,800 -629 Descending Oakland Center
Fri 05:41:01 PM 37.1753 -121.7231 318° Northwest 196 226 5,800 -1,073 Descending Oakland Center
Fri 05:42:02 PM 37.2153 -121.7731 315° West 191 220 4,600 -1,171 Descending Oakland Center
Fri 05:43:04 PM 37.2519 -121.8133 319° Northwest 183 211 3,400 -1,161 Descending Oakland Center
Fri 05:44:06 PM 37.2900 -121.8494 323° Northwest 177 204 2,200 -1,122 Descending Oakland Center
Fri 05:45:07 PM 37.3233 -121.8842 320° Northwest 167 192 1,100 -927 Descending Oakland Center
Fri 05:46:09 PM 37.3472 -121.9106 319° Northwest 136 157 300 -774 Descending Oakland Center
Fri 05:48:00 PM 37.3500 -121.9167 North  Level FlightAware Approximate

Login

Don't have an account? Register now (free) for customized features, flight alerts, and more!